Time;durP1;ratioP1;P1;durP2;ratioP2;P2;SDS_P1;SDS_P2;PMS_P1;PMS_P2;Temp;Humidity;BMP_temperature;BMP_pressure;BME280_temperature;BME280_humidity;BME280_pressure;Samples;Min_cycle;Max_cycle;Signal;HPM_P1;HPM_P2
2021/10/02 00:34:22;;;;;;;6.22;5.57;;;;;;;11.38;100.00;95916.78;5009969;28;24495;-77
2021/10/02 00:37:02;;;;;;;6.03;5.38;;;;;;;11.44;100.00;95908.59;5012352;28;24437;-77
2021/10/02 00:44:58;;;;;;;6.43;4.93;;;;;;;11.33;100.00;95914.47;5011758;28;24918;-77
2021/10/02 00:47:26;;;;;;;5.32;4.70;;;;;;;11.37;100.00;95917.69;5012211;28;24440;-77
2021/10/02 00:49:56;;;;;;;6.60;5.30;;;;;;;11.34;100.00;95923.06;5012640;28;24448;-78
2021/10/02 00:52:23;;;;;;;5.78;5.00;;;;;;;11.34;100.00;95916.13;5012463;28;24452;-78
2021/10/02 00:54:50;;;;;;;6.97;4.90;;;;;;;11.39;100.00;95913.28;5012867;28;24436;-78
2021/10/02 00:57:17;;;;;;;6.75;4.78;;;;;;;11.29;100.00;95910.41;5012386;28;24463;-78
2021/10/02 00:59:46;;;;;;;5.30;4.80;;;;;;;11.41;100.00;95905.38;5011795;28;25000;-77
2021/10/02 01:02:18;;;;;;;6.57;5.22;;;;;;;11.27;100.00;95914.88;5014436;28;24444;-78
2021/10/02 01:05:05;;;;;;;5.97;5.38;;;;;;;11.09;100.00;95911.69;5016084;28;24459;-78
2021/10/02 01:07:36;;;;;;;10.63;5.15;;;;;;;11.07;100.00;95905.75;5015548;28;24487;-78
2021/10/02 01:10:14;;;;;;;6.00;5.40;;;;;;;11.13;100.00;95901.94;5015622;28;24459;-77
2021/10/02 01:12:54;;;;;;;8.32;5.15;;;;;;;11.13;100.00;95900.19;5015315;28;24545;-77
2021/10/02 01:15:27;;;;;;;6.68;5.68;;;;;;;11.10;100.00;95900.38;5014398;28;24468;-77
2021/10/02 01:17:59;;;;;;;8.13;5.95;;;;;;;11.09;100.00;95905.66;5015059;28;24443;-78
2021/10/02 01:20:37;;;;;;;8.35;5.47;;;;;;;11.19;100.00;95896.34;5015290;28;24432;-78
2021/10/02 01:23:26;;;;;;;7.38;5.85;;;;;;;11.12;100.00;95902.84;5015251;28;24494;-77
2021/10/02 01:26:06;;;;;;;5.82;5.18;;;;;;;11.07;100.00;95903.16;5015102;28;24448;-78
2021/10/02 01:28:39;;;;;;;5.47;4.97;;;;;;;11.10;100.00;95899.56;5014943;28;24486;-77
2021/10/02 01:31:12;;;;;;;5.95;5.18;;;;;;;11.04;100.00;95895.56;5014832;28;25005;-77
2021/10/02 01:33:46;;;;;;;7.35;5.88;;;;;;;10.93;100.00;95892.81;5014180;28;24451;-77
2021/10/02 01:36:31;;;;;;;7.47;5.35;;;;;;;10.91;100.00;95884.31;5014527;28;24480;-77
2021/10/02 01:47:18;;;;;;;7.47;5.32;;;;;;;11.24;100.00;95854.63;5013859;28;24992;-78
2021/10/02 01:49:46;;;;;;;5.43;4.93;;;;;;;10.88;100.00;95862.00;5014365;28;24494;-77
2021/10/02 01:52:14;;;;;;;6.60;5.87;;;;;;;10.75;100.00;95868.88;5013838;28;24456;-77
2021/10/02 01:54:43;;;;;;;6.78;5.88;;;;;;;10.75;100.00;95874.03;5015254;28;24980;-77
2021/10/02 01:57:10;;;;;;;6.45;5.82;;;;;;;10.65;100.00;95863.44;5015770;28;24429;-77
2021/10/02 01:59:40;;;;;;;5.68;5.15;;;;;;;10.73;100.00;95865.56;5015942;28;21183;-77
2021/10/02 02:02:07;;;;;;;7.72;5.50;;;;;;;10.84;100.00;95863.13;5013764;28;25055;-77
2021/10/02 02:04:36;;;;;;;7.47;5.80;;;;;;;10.87;100.00;95865.53;5013694;28;25049;-77
2021/10/02 02:07:04;;;;;;;6.72;5.78;;;;;;;10.93;100.00;95871.25;5013776;28;25011;-77
2021/10/02 02:09:38;;;;;;;6.55;5.53;;;;;;;11.01;100.00;95875.03;5014193;28;24440;-78
2021/10/02 02:12:08;;;;;;;5.70;5.10;;;;;;;11.03;100.00;95859.38;5014514;28;24452;-77
2021/10/02 02:14:36;;;;;;;9.53;5.70;;;;;;;11.01;100.00;95861.22;5014049;28;24432;-78
2021/10/02 02:17:06;;;;;;;5.90;5.40;;;;;;;11.01;100.00;95862.09;5015152;28;24496;-78
2021/10/02 02:19:34;;;;;;;7.10;5.78;;;;;;;10.95;100.00;95864.22;5015232;28;24536;-77
2021/10/02 02:22:01;;;;;;;6.25;5.65;;;;;;;10.88;100.00;95864.59;5015361;28;24443;-78
2021/10/02 02:24:28;;;;;;;6.30;5.68;;;;;;;10.79;100.00;95862.59;5014959;28;25011;-77
2021/10/02 02:26:55;;;;;;;8.85;5.65;;;;;;;10.80;100.00;95861.66;5014740;28;24443;-77
2021/10/02 02:29:22;;;;;;;9.35;6.28;;;;;;;10.84;100.00;95850.19;5014013;28;24436;-77
2021/10/02 02:31:49;;;;;;;10.60;6.38;;;;;;;10.76;100.00;95846.41;5014164;28;24468;-78
2021/10/02 02:34:17;;;;;;;7.80;6.00;;;;;;;10.67;100.00;95850.38;5013830;28;24445;-78
2021/10/02 02:36:44;;;;;;;8.15;6.22;;;;;;;10.68;100.00;95846.88;5013470;28;24431;-78
2021/10/02 02:39:10;;;;;;;7.65;5.88;;;;;;;10.80;100.00;95843.53;5012969;28;24524;-77
2021/10/02 02:41:37;;;;;;;20.47;6.07;;;;;;;10.79;100.00;95835.84;5013853;28;24446;-77
2021/10/02 02:44:04;;;;;;;6.93;6.05;;;;;;;10.73;100.00;95831.06;5013900;28;24439;-78
2021/10/02 02:46:33;;;;;;;9.68;5.68;;;;;;;10.75;100.00;95840.38;5017492;28;24452;-78
2021/10/02 02:49:06;;;;;;;8.55;6.13;;;;;;;10.87;100.00;95834.44;5014615;28;20825;-77
2021/10/02 02:51:41;;;;;;;6.30;5.70;;;;;;;11.00;100.00;95833.66;5014076;28;24444;-78
2021/10/02 02:54:12;;;;;;;8.20;5.72;;;;;;;11.11;100.00;95832.03;5014394;28;24799;-77
2021/10/02 02:56:43;;;;;;;5.90;5.13;;;;;;;11.09;100.00;95826.16;5013981;28;24432;-77
2021/10/02 02:59:16;;;;;;;5.47;4.75;;;;;;;11.09;100.00;95823.56;5013663;28;24439;-77
2021/10/02 03:01:45;;;;;;;6.53;5.40;;;;;;;10.94;100.00;95821.09;5013890;28;24850;-78
2021/10/02 03:04:15;;;;;;;6.07;5.40;;;;;;;10.88;100.00;95830.91;5014721;28;24437;-77
2021/10/02 03:06:45;;;;;;;8.25;5.68;;;;;;;10.90;100.00;95821.31;5010990;28;24459;-77
2021/10/02 03:09:13;;;;;;;6.40;5.70;;;;;;;10.96;100.00;95830.44;5014306;28;24523;-78
2021/10/02 03:11:41;;;;;;;8.52;5.65;;;;;;;10.99;100.00;95835.44;5014354;28;24495;-77
2021/10/02 03:14:07;;;;;;;6.90;5.90;;;;;;;11.01;100.00;95825.81;5014138;28;24444;-78
2021/10/02 03:16:35;;;;;;;6.47;5.60;;;;;;;11.09;100.00;95831.31;5012827;28;24487;-77
2021/10/02 03:19:03;;;;;;;5.55;5.05;;;;;;;11.00;100.00;95826.72;5013372;28;24452;-78
2021/10/02 03:21:31;;;;;;;10.17;6.10;;;;;;;11.00;100.00;95833.66;5013619;28;20895;-77
2021/10/02 03:23:59;;;;;;;10.10;5.75;;;;;;;11.00;100.00;95821.53;5011504;28;24436;-77
2021/10/02 03:26:26;;;;;;;6.13;5.53;;;;;;;11.01;100.00;95827.53;5012967;28;24567;-77
2021/10/02 03:28:55;;;;;;;7.88;5.97;;;;;;;11.04;100.00;95832.53;5013425;28;24447;-77
2021/10/02 03:31:22;;;;;;;7.80;5.75;;;;;;;11.06;100.00;95830.69;5012897;28;24475;-77
2021/10/02 03:33:50;;;;;;;6.70;5.68;;;;;;;11.07;100.00;95840.94;5012673;28;24845;-77
2021/10/02 03:36:17;;;;;;;6.68;5.25;;;;;;;11.05;100.00;95832.47;5012692;28;24455;-77
2021/10/02 03:38:43;;;;;;;5.55;5.05;;;;;;;11.09;100.00;95840.88;5013191;28;24444;-77
2021/10/02 03:41:12;;;;;;;4.85;4.35;;;;;;;11.06;100.00;95841.06;5012530;28;24801;-77
2021/10/02 03:43:38;;;;;;;5.35;4.75;;;;;;;11.06;100.00;95826.34;5012833;28;24447;-77
2021/10/02 03:46:06;;;;;;;6.07;5.47;;;;;;;10.97;100.00;95826.91;5012275;28;24460;-77
2021/10/02 03:48:33;;;;;;;6.38;5.78;;;;;;;10.88;100.00;95830.09;5012238;28;25241;-77
2021/10/02 03:50:59;;;;;;;6.78;5.65;;;;;;;10.83;100.00;95829.56;5013030;28;24436;-77
2021/10/02 03:53:27;;;;;;;6.15;5.50;;;;;;;10.84;100.00;95826.88;5012517;28;24444;-77
2021/10/02 03:55:53;;;;;;;7.68;5.40;;;;;;;10.88;100.00;95830.09;5012449;28;25073;-77
2021/10/02 03:58:21;;;;;;;6.60;5.88;;;;;;;10.84;100.00;95828.63;5011811;28;24980;-78
2021/10/02 04:00:48;;;;;;;7.00;5.65;;;;;;;10.83;100.00;95829.56;5011771;28;24467;-77
2021/10/02 04:03:14;;;;;;;5.45;4.93;;;;;;;10.89;100.00;95821.38;5004611;28;24448;-77
2021/10/02 04:05:41;;;;;;;6.45;5.28;;;;;;;10.94;100.00;95823.66;5012335;28;25163;-78
2021/10/02 04:08:07;;;;;;;6.15;5.20;;;;;;;10.99;100.00;95821.63;5013197;28;24445;-78
2021/10/02 04:10:34;;;;;;;6.88;5.68;;;;;;;10.89;100.00;95829.16;5013099;28;24463;-78
2021/10/02 04:13:00;;;;;;;6.75;5.68;;;;;;;10.75;100.00;95826.59;5012285;28;24487;-77
2021/10/02 04:15:28;;;;;;;11.13;5.72;;;;;;;10.82;100.00;95830.47;5012449;28;24432;-78
2021/10/02 04:17:54;;;;;;;6.25;5.63;;;;;;;10.84;100.00;95832.03;5012493;28;24448;-78
2021/10/02 04:20:21;;;;;;;8.32;5.80;;;;;;;10.79;100.00;95821.16;5012349;28;24969;-78
2021/10/02 04:22:47;;;;;;;7.47;6.38;;;;;;;10.64;100.00;95824.66;5012091;28;24522;-77
2021/10/02 04:25:14;;;;;;;8.10;5.60;;;;;;;10.52;100.00;95825.44;5011832;28;24985;-78
2021/10/02 04:27:41;;;;;;;6.55;5.78;;;;;;;10.53;100.00;95833.13;5012424;28;24432;-77
2021/10/02 04:30:08;;;;;;;9.48;6.35;;;;;;;10.61;100.00;95830.06;5012007;28;24444;-77
2021/10/02 04:32:36;;;;;;;7.80;5.90;;;;;;;10.53;100.00;95837.44;5011960;28;24507;-78
2021/10/02 04:35:02;;;;;;;6.57;5.70;;;;;;;10.50;100.00;95827.31;5015099;28;20841;-77
2021/10/02 04:37:29;;;;;;;8.30;6.13;;;;;;;10.54;100.00;95832.19;5016945;28;24547;-78
2021/10/02 04:39:55;;;;;;;7.75;5.80;;;;;;;10.64;100.00;95833.28;5017628;28;24490;-78
2021/10/02 04:42:21;;;;;;;7.10;5.65;;;;;;;10.71;100.00;95841.50;5015121;28;24443;-78
2021/10/02 04:44:48;;;;;;;7.43;5.85;;;;;;;10.74;100.00;95832.72;5005946;28;24449;-79
2021/10/02 04:47:14;;;;;;;6.30;5.25;;;;;;;10.80;100.00;95840.09;5008958;28;24826;-78
2021/10/02 04:49:42;;;;;;;6.28;5.47;;;;;;;10.81;100.00;95834.81;5010232;28;24486;-78
2021/10/02 04:52:09;;;;;;;7.78;5.28;;;;;;;10.78;100.00;95827.22;5011745;28;24449;-78
2021/10/02 04:54:35;;;;;;;12.00;5.75;;;;;;;10.62;100.00;95826.53;5014384;28;24822;-78
2021/10/02 04:57:01;;;;;;;7.20;5.72;;;;;;;10.50;100.00;95822.97;5013981;28;24487;-77
2021/10/02 04:59:28;;;;;;;7.68;6.18;;;;;;;10.39;100.00;95825.38;5013673;28;24453;-78
2021/10/02 05:01:54;;;;;;;6.38;5.50;;;;;;;10.26;100.00;95825.28;5013588;28;24451;-78
2021/10/02 05:04:21;;;;;;;6.10;5.50;;;;;;;10.24;100.00;95821.09;5013443;28;25064;-78
2021/10/02 05:06:49;;;;;;;6.73;6.10;;;;;;;10.18;100.00;95811.94;5013711;28;25063;-76
2021/10/02 05:09:16;;;;;;;7.75;6.18;;;;;;;10.29;100.00;95804.38;5013535;28;20774;-76
2021/10/02 05:11:42;;;;;;;6.03;5.43;;;;;;;10.49;100.00;95794.53;5013358;28;24440;-75
2021/10/02 05:14:09;;;;;;;5.50;5.00;;;;;;;10.54;100.00;95803.72;5013556;28;20852;-75
2021/10/02 05:16:35;;;;;;;6.15;5.40;;;;;;;10.52;100.00;95794.38;5012988;28;21381;-75
2021/10/02 05:19:02;;;;;;;8.98;5.30;;;;;;;10.55;100.00;95792.41;5013356;28;24432;-74
2021/10/02 05:21:28;;;;;;;8.52;5.85;;;;;;;10.58;100.00;95788.81;5012921;28;24482;-75
2021/10/02 05:23:56;;;;;;;7.43;5.68;;;;;;;10.59;100.00;95783.53;5004920;28;24432;-75
2021/10/02 05:26:22;;;;;;;5.53;5.03;;;;;;;10.61;100.00;95767.91;5012445;28;20791;-75
2021/10/02 05:28:49;;;;;;;5.78;5.18;;;;;;;10.63;100.00;95776.41;5012678;28;24842;-75
2021/10/02 05:31:17;;;;;;;5.97;5.07;;;;;;;10.63;100.00;95768.63;5012666;28;24521;-75
2021/10/02 05:33:43;;;;;;;8.68;6.30;;;;;;;10.50;100.00;95767.75;5012816;28;20870;-75
2021/10/02 05:36:10;;;;;;;8.27;5.57;;;;;;;10.48;100.00;95777.34;5012648;28;24439;-76
2021/10/02 05:38:36;;;;;;;5.78;4.93;;;;;;;10.48;100.00;95778.19;5012734;28;24440;-76
2021/10/02 05:41:04;;;;;;;8.45;5.70;;;;;;;10.45;100.00;95783.53;5012983;28;24441;-75
2021/10/02 05:43:30;;;;;;;7.13;5.20;;;;;;;10.42;100.00;95788.94;5012713;28;20775;-76
2021/10/02 05:45:57;;;;;;;6.18;5.57;;;;;;;10.49;100.00;95791.97;5010873;28;24452;-76
2021/10/02 05:48:23;;;;;;;7.13;5.43;;;;;;;10.57;100.00;95798.34;5001742;28;24440;-76
2021/10/02 05:50:49;;;;;;;9.27;5.83;;;;;;;10.66;100.00;95789.97;4997700;28;24514;-77
2021/10/02 05:53:16;;;;;;;4.93;4.43;;;;;;;10.75;100.00;95788.56;5012642;28;24437;-76
2021/10/02 05:55:42;;;;;;;5.82;4.70;;;;;;;10.87;100.00;95793.00;5012566;28;24428;-75
2021/10/02 05:58:10;;;;;;;8.43;5.10;;;;;;;10.86;100.00;95788.75;5012790;28;20774;-76
2021/10/02 06:00:36;;;;;;;7.07;5.20;;;;;;;10.92;100.00;95782.31;5012155;28;24486;-74
2021/10/02 06:03:03;;;;;;;6.07;4.72;;;;;;;10.88;100.00;95776.50;5037014;23;20825;-82
2021/10/02 06:05:30;;;;;;;8.38;5.20;;;;;;;10.96;100.00;95777.78;5054331;28;20778;-80
2021/10/02 06:07:56;;;;;;;6.57;5.00;;;;;;;11.00;100.00;95782.66;5043915;28;24459;-77
2021/10/02 06:10:23;;;;;;;5.10;4.60;;;;;;;10.99;100.00;95780.19;5044049;28;21181;-77
2021/10/02 06:12:53;;;;;;;6.90;4.77;;;;;;;10.89;100.00;95782.50;5033510;28;24459;-76
2021/10/02 06:15:21;;;;;;;5.30;4.80;;;;;;;10.90;100.00;95779.84;5032753;28;25034;-76
2021/10/02 06:17:47;;;;;;;5.97;5.00;;;;;;;10.83;100.00;95773.38;5033118;28;24412;-76
2021/10/02 06:20:14;;;;;;;7.30;5.07;;;;;;;10.83;100.00;95778.56;5033122;28;24415;-77
2021/10/02 06:22:40;;;;;;;8.40;4.85;;;;;;;10.88;100.00;95781.69;5032593;28;24467;-76
2021/10/02 06:25:09;;;;;;;7.18;5.05;;;;;;;10.93;100.00;95783.97;5032450;28;24798;-76
2021/10/02 06:27:35;;;;;;;8.35;4.82;;;;;;;11.03;100.00;95790.25;5032379;28;24486;-77
2021/10/02 06:30:02;;;;;;;6.72;5.35;;;;;;;11.09;100.00;95791.63;5032239;28;24424;-77
2021/10/02 06:32:30;;;;;;;7.15;5.35;;;;;;;11.12;100.00;95787.06;5032252;28;24426;-76
2021/10/02 06:34:56;;;;;;;6.38;4.95;;;;;;;11.14;100.00;95787.78;5031893;28;24431;-76
2021/10/02 06:37:23;;;;;;;5.63;4.35;;;;;;;11.24;100.00;95795.00;5032038;28;24469;-75
2021/10/02 06:39:49;;;;;;;6.80;4.80;;;;;;;11.29;100.00;95791.16;5031937;28;24420;-76
2021/10/02 06:42:16;;;;;;;7.15;4.90;;;;;;;11.37;100.00;95781.09;5031806;28;24836;-76
2021/10/02 06:44:43;;;;;;;5.30;4.57;;;;;;;11.42;100.00;95790.34;5031524;28;24416;-76
2021/10/02 06:47:09;;;;;;;5.15;4.28;;;;;;;11.45;100.00;95782.34;5031437;28;24447;-76
2021/10/02 06:49:37;;;;;;;5.45;4.53;;;;;;;11.53;100.00;95782.69;5031749;28;24427;-76
2021/10/02 06:52:04;;;;;;;7.55;4.78;;;;;;;11.55;100.00;95783.41;5032830;28;24416;-77
2021/10/02 06:54:30;;;;;;;6.97;5.15;;;;;;;11.65;100.00;95778.47;5032243;28;24424;-77
2021/10/02 06:56:57;;;;;;;6.32;4.63;;;;;;;11.56;100.00;95788.50;5032097;28;24778;-77
2021/10/02 06:59:25;;;;;;;5.00;4.22;;;;;;;11.45;100.00;95797.91;5030973;28;25050;-76
2021/10/02 07:01:52;;;;;;;6.95;4.50;;;;;;;11.44;100.00;95797.09;5031862;28;24428;-77
2021/10/02 07:04:18;;;;;;;6.18;4.65;;;;;;;11.57;100.00;95795.38;5032250;28;24423;-77
2021/10/02 07:06:46;;;;;;;6.20;4.25;;;;;;;11.75;100.00;95795.88;5031420;28;24513;-77
2021/10/02 07:09:12;;;;;;;7.50;4.57;;;;;;;11.81;100.00;95799.84;5031547;28;24431;-77
2021/10/02 07:11:39;;;;;;;6.43;4.22;;;;;;;11.91;100.00;95797.50;5031675;28;24411;-76
2021/10/02 07:14:05;;;;;;;7.07;4.57;;;;;;;12.01;100.00;95807.13;5031484;28;24432;-77
2021/10/02 07:16:32;;;;;;;6.07;4.22;;;;;;;12.11;100.00;95802.16;5031305;28;24478;-77
2021/10/02 07:18:58;;;;;;;5.82;4.53;;;;;;;12.03;100.00;95804.44;5036452;28;24960;-76
2021/10/02 07:21:24;;;;;;;5.03;4.53;;;;;;;12.07;100.00;95798.94;5033906;28;24975;-76
2021/10/02 07:23:52;;;;;;;5.18;4.43;;;;;;;12.18;100.00;95795.59;5031091;28;24435;-77
2021/10/02 07:26:19;;;;;;;5.13;4.20;;;;;;;12.34;100.00;95787.56;5030571;28;24419;-77
2021/10/02 07:28:45;;;;;;;6.03;4.53;;;;;;;12.55;99.94;95793.88;5030771;28;24427;-76
2021/10/02 07:31:12;;;;;;;6.35;4.20;;;;;;;12.83;98.27;95791.94;5031191;28;24432;-77
2021/10/02 07:33:38;;;;;;;6.00;4.20;;;;;;;12.97;97.04;95798.72;5031143;28;24478;-76
2021/10/02 07:36:05;;;;;;;5.25;4.43;;;;;;;12.78;96.99;95789.66;5031129;28;24427;-76
2021/10/02 07:38:31;;;;;;;6.43;4.30;;;;;;;12.69;98.17;95799.88;5031155;28;24474;-76
2021/10/02 07:41:00;;;;;;;5.22;4.13;;;;;;;12.68;100.00;95801.66;5030918;28;24424;-77
2021/10/02 07:43:28;;;;;;;8.43;5.18;;;;;;;12.72;98.76;95797.91;5030897;28;24432;-76
2021/10/02 07:45:55;;;;;;;7.25;5.57;;;;;;;12.95;96.72;95790.22;5030962;28;24482;-77
2021/10/02 07:48:24;;;;;;;7.97;6.33;;;;;;;13.13;95.96;95788.91;5031256;28;24505;-77
2021/10/02 07:50:52;;;;;;;6.50;5.10;;;;;;;13.13;94.54;95794.09;5031256;28;24602;-76
2021/10/02 07:53:19;;;;;;;6.32;4.30;;;;;;;13.35;93.55;95792.53;5031241;28;24833;-77
2021/10/02 07:55:48;;;;;;;7.20;4.13;;;;;;;13.49;91.76;95781.97;5030920;28;24423;-76
2021/10/02 07:58:16;;;;;;;7.47;4.60;;;;;;;13.71;90.38;95784.63;5033900;28;24435;-76
2021/10/02 08:00:42;;;;;;;4.90;4.03;;;;;;;13.90;86.88;95788.44;5032878;28;24459;-77
2021/10/02 08:03:09;;;;;;;6.40;4.10;;;;;;;13.93;87.28;95783.81;5031330;28;24824;-77
2021/10/02 08:05:35;;;;;;;4.20;3.80;;;;;;;14.07;86.55;95788.00;5031170;28;24424;-76
2021/10/02 08:08:02;;;;;;;4.18;3.63;;;;;;;14.05;83.86;95792.47;5031688;28;24840;-77
2021/10/02 08:10:29;;;;;;;4.83;3.17;;;;;;;14.16;83.76;95795.09;5029916;28;24420;-76
2021/10/02 08:12:56;;;;;;;4.27;3.20;;;;;;;14.27;82.15;95796.88;5030524;28;24493;-76
2021/10/02 08:15:24;;;;;;;3.95;3.42;;;;;;;14.33;81.54;95798.19;5029977;28;24949;-76
2021/10/02 08:17:54;;;;;;;4.45;3.38;;;;;;;14.52;81.23;95808.88;5031245;28;24408;-76
2021/10/02 08:20:20;;;;;;;4.30;3.40;;;;;;;14.61;79.72;95796.88;5030409;28;24467;-76
2021/10/02 08:22:49;;;;;;;3.28;2.97;;;;;;;14.80;78.18;95801.50;5030184;28;24420;-76
2021/10/02 08:25:17;;;;;;;4.53;3.40;;;;;;;14.96;77.81;95791.50;5029770;28;24589;-76
2021/10/02 08:27:45;;;;;;;5.82;2.78;;;;;;;14.88;74.45;95792.13;5030159;28;25182;-76
2021/10/02 08:30:13;;;;;;;2.80;2.50;;;;;;;15.13;74.90;95793.59;5030374;28;24430;-76
2021/10/02 08:32:41;;;;;;;3.30;3.00;;;;;;;15.21;73.86;95798.19;5030315;28;24432;-77
2021/10/02 08:35:09;;;;;;;4.40;2.70;;;;;;;15.36;73.89;95789.13;5030021;28;24423;-76
2021/10/02 08:37:36;;;;;;;3.45;2.53;;;;;;;15.41;71.84;95780.91;5030113;28;24470;-76
2021/10/02 08:40:05;;;;;;;5.80;2.40;;;;;;;15.52;71.95;95785.25;5030444;28;24420;-77
2021/10/02 08:42:32;;;;;;;9.18;2.90;;;;;;;15.60;69.90;95777.63;5030286;28;24481;-76
2021/10/02 08:45:00;;;;;;;3.47;2.40;;;;;;;15.79;70.89;95784.78;5030309;28;24420;-77
2021/10/02 08:47:27;;;;;;;2.90;2.40;;;;;;;16.20;67.59;95774.31;5029951;28;24969;-76
2021/10/02 08:49:57;;;;;;;4.05;2.55;;;;;;;16.44;67.08;95775.78;5029993;28;24428;-76
2021/10/02 08:52:25;;;;;;;3.13;2.25;;;;;;;16.52;65.71;95775.09;5030950;28;24458;-78
2021/10/02 08:54:54;;;;;;;2.47;2.00;;;;;;;16.98;63.89;95771.94;5031570;28;24427;-76
2021/10/02 08:57:23;;;;;;;3.50;1.87;;;;;;;16.95;62.60;95767.00;5032114;28;24430;-77
2021/10/02 08:59:50;;;;;;;3.13;1.60;;;;;;;16.75;62.47;95767.91;5032118;28;24574;-77
2021/10/02 09:02:18;;;;;;;3.43;1.73;;;;;;;16.88;62.18;95756.22;5031476;28;24436;-76
2021/10/02 09:04:45;;;;;;;3.15;1.63;;;;;;;17.22;61.07;95762.88;5031999;28;24424;-77
2021/10/02 09:07:15;;;;;;;4.40;2.20;;;;;;;16.89;61.26;95749.22;5032052;28;24456;-76
2021/10/02 09:09:43;;;;;;;2.00;1.70;;;;;;;17.16;59.93;95744.13;5031982;28;24553;-77
2021/10/02 09:12:11;;;;;;;4.40;2.00;;;;;;;17.22;59.94;95742.78;5032079;28;24428;-77
2021/10/02 09:14:38;;;;;;;2.47;1.67;;;;;;;17.27;59.45;95740.56;5032176;28;24477;-76
2021/10/02 09:17:05;;;;;;;2.47;2.00;;;;;;;17.59;59.31;95734.19;5031931;28;24415;-76
2021/10/02 09:19:32;;;;;;;2.78;1.80;;;;;;;17.75;58.79;95739.72;5032154;28;25067;-76
2021/10/02 09:22:01;;;;;;;2.42;1.55;;;;;;;17.81;58.90;95727.84;5032358;28;24419;-77
2021/10/02 09:24:32;;;;;;;2.88;1.77;;;;;;;17.85;59.27;95731.84;5035608;28;24841;-77
2021/10/02 09:26:59;;;;;;;3.60;1.85;;;;;;;18.34;57.78;95725.44;5035731;28;24428;-76
2021/10/02 09:29:38;;;;;;;4.47;2.17;;;;;;;18.46;57.08;95720.00;5035703;28;24450;-77
2021/10/02 09:32:06;;;;;;;3.10;1.92;;;;;;;18.65;57.82;95726.94;5035453;28;24507;-77
2021/10/02 09:34:43;;;;;;;4.75;2.28;;;;;;;18.46;57.30;95723.44;5035930;28;24423;-75
2021/10/02 09:37:19;;;;;;;4.03;2.20;;;;;;;18.44;57.17;95714.09;5035480;28;24464;-75
2021/10/02 09:39:48;;;;;;;3.13;2.08;;;;;;;18.38;58.56;95718.94;5035057;28;24782;-77
2021/10/02 09:42:27;;;;;;;3.60;2.20;;;;;;;18.41;57.17;95712.59;5034924;28;24451;-76
2021/10/02 09:44:57;;;;;;;3.53;1.92;;;;;;;18.73;56.79;95711.34;5035316;28;24416;-77
2021/10/02 09:47:24;;;;;;;3.33;1.88;;;;;;;18.63;57.01;95709.56;5035203;28;24443;-77
2021/10/02 09:49:50;;;;;;;2.63;1.88;;;;;;;18.42;56.95;95702.91;5035104;28;24843;-77
2021/10/02 09:52:31;;;;;;;4.10;2.10;;;;;;;19.00;57.18;95703.41;5035002;28;24789;-77
2021/10/02 09:54:59;;;;;;;3.22;1.92;;;;;;;19.34;55.80;95700.09;5035172;28;24483;-77
2021/10/02 09:57:26;;;;;;;3.90;2.00;;;;;;;19.67;54.25;95703.81;5035195;28;24443;-77
2021/10/02 10:00:07;;;;;;;2.90;1.85;;;;;;;19.57;54.83;95703.06;5035380;28;24450;-76
2021/10/02 10:02:38;;;;;;;3.47;2.10;;;;;;;19.48;54.43;95701.34;5035338;28;24505;-77
2021/10/02 10:05:06;;;;;;;3.28;2.00;;;;;;;19.80;55.02;95696.38;5035051;28;24797;-77
2021/10/02 10:07:32;;;;;;;4.95;1.90;;;;;;;19.89;54.49;95684.09;5035561;28;24452;-77
2021/10/02 10:10:03;;;;;;;6.50;2.30;;;;;;;19.83;53.50;95688.16;5034972;28;24419;-77
2021/10/02 10:12:30;;;;;;;3.65;1.80;;;;;;;19.86;52.92;95680.94;5034837;28;24412;-77
2021/10/02 10:14:57;;;;;;;3.90;2.23;;;;;;;19.88;55.70;95679.00;5034794;28;24442;-78
2021/10/02 10:17:24;;;;;;;3.88;1.90;;;;;;;20.05;52.63;95680.72;5035085;28;24412;-78
2021/10/02 10:20:07;;;;;;;2.70;1.98;;;;;;;19.55;53.83;95673.50;5034980;28;24419;-76
2021/10/02 10:22:35;;;;;;;3.78;2.28;;;;;;;19.28;55.21;95662.16;5035084;28;24439;-77
2021/10/02 10:25:06;;;;;;;2.60;2.00;;;;;;;19.79;56.57;95654.44;5034495;28;24992;-76
2021/10/02 10:27:36;;;;;;;4.70;2.10;;;;;;;19.79;54.97;95651.81;5034591;28;24985;-77
2021/10/02 10:30:12;;;;;;;5.70;2.30;;;;;;;20.02;52.54;95646.84;5036723;28;24424;-77
2021/10/02 10:32:53;;;;;;;4.28;2.05;;;;;;;20.15;53.70;95639.34;5037586;28;24430;-77
2021/10/02 10:35:20;;;;;;;3.38;2.00;;;;;;;20.08;53.07;95640.97;5036188;28;24412;-77
2021/10/02 10:37:48;;;;;;;4.03;2.47;;;;;;;19.92;53.32;95635.66;5035673;28;24419;-77
2021/10/02 10:40:15;;;;;;;2.72;1.90;;;;;;;19.95;54.09;95635.31;5035178;28;24482;-77
2021/10/02 10:42:42;;;;;;;4.40;2.22;;;;;;;19.93;54.15;95638.09;5035820;28;24435;-77
2021/10/02 10:45:09;;;;;;;4.38;2.35;;;;;;;20.18;52.90;95639.03;5035685;28;24828;-77
2021/10/02 10:47:37;;;;;;;3.65;2.08;;;;;;;20.20;53.55;95638.88;5035087;28;25076;-76
2021/10/02 10:50:04;;;;;;;3.78;2.35;;;;;;;19.90;53.94;95640.22;5035055;28;24995;-77
2021/10/02 10:52:36;;;;;;;3.25;2.00;;;;;;;20.05;53.17;95628.13;5035027;28;24481;-77
2021/10/02 10:55:10;;;;;;;2.63;2.05;;;;;;;19.97;53.26;95625.47;5034794;28;24473;-78
2021/10/02 10:57:40;;;;;;;4.07;2.28;;;;;;;19.92;52.91;95633.84;5035121;28;24546;-77
2021/10/02 11:00:10;;;;;;;3.85;2.40;;;;;;;19.96;55.76;95624.66;5035293;28;24439;-77
2021/10/02 11:02:45;;;;;;;3.50;2.03;;;;;;;20.23;53.04;95620.16;5034770;28;24432;-77
2021/10/02 11:05:48;;;;;;;2.73;1.90;;;;;;;20.04;51.97;95616.78;5034065;28;24973;-78
2021/10/02 11:08:19;;;;;;;2.92;2.13;;;;;;;20.40;51.88;95608.72;5015752;28;24451;-77
2021/10/02 11:10:57;;;;;;;2.72;2.25;;;;;;;20.25;52.93;95611.13;5034802;28;24841;-78
2021/10/02 11:13:56;;;;;;;3.20;2.28;;;;;;;20.02;52.28;95613.53;5034726;28;24506;-78
2021/10/02 11:16:38;;;;;;;3.80;2.10;;;;;;;20.26;51.19;95604.88;5034425;28;24531;-76
2021/10/02 11:19:33;;;;;;;3.20;1.92;;;;;;;20.38;50.79;95610.66;5034162;28;24423;-75
2021/10/02 11:22:48;;;;;;;3.65;2.17;;;;;;;20.36;49.82;95601.28;5034132;28;25007;-78
2021/10/02 11:25:19;;;;;;;3.78;2.00;;;;;;;20.30;50.41;95600.13;4995837;28;24558;-79
2021/10/02 11:27:45;;;;;;;5.05;1.83;;;;;;;20.10;51.20;95591.69;5034572;28;24455;-78
2021/10/02 11:30:15;;;;;;;2.73;2.07;;;;;;;20.00;51.10;95586.56;5036238;28;25001;-78
2021/10/02 11:32:42;;;;;;;5.18;2.17;;;;;;;20.14;51.75;95586.94;5032060;28;24455;-78
2021/10/02 11:35:26;;;;;;;5.00;2.20;;;;;;;20.21;52.21;95572.16;5024704;28;24432;-79
2021/10/02 11:37:56;;;;;;;3.80;1.90;;;;;;;20.07;51.03;95568.34;5022395;28;24436;-78
2021/10/02 11:40:45;;;;;;;2.28;1.80;;;;;;;20.12;50.43;95563.41;5014720;28;24432;-78
2021/10/02 11:43:31;;;;;;;3.45;1.83;;;;;;;20.17;49.68;95561.16;5012825;28;24447;-79
2021/10/02 11:46:08;;;;;;;6.05;2.20;;;;;;;20.31;49.79;95554.44;5015914;28;24463;-78
2021/10/02 11:48:45;;;;;;;2.38;1.70;;;;;;;20.21;49.29;95543.22;5022709;28;24448;-78
2021/10/02 11:51:24;;;;;;;4.20;2.00;;;;;;;20.26;48.86;95543.56;5024408;28;24813;-75
2021/10/02 11:53:54;;;;;;;3.28;1.90;;;;;;;20.41;50.88;95543.75;5019733;28;25011;-74
2021/10/02 11:56:23;;;;;;;3.22;2.03;;;;;;;20.51;48.43;95541.84;5029865;28;24985;-75
2021/10/02 11:58:51;;;;;;;2.33;1.80;;;;;;;20.47;49.37;95533.41;5029956;28;24548;-75
2021/10/02 12:01:22;;;;;;;6.10;2.30;;;;;;;20.43;49.31;95537.38;5029980;28;24853;-75
2021/10/02 12:03:50;;;;;;;5.93;2.30;;;;;;;20.50;49.34;95530.47;5022714;28;24848;-74
2021/10/02 12:06:23;;;;;;;3.70;2.05;;;;;;;20.61;48.48;95536.41;5030030;28;24841;-74
2021/10/02 12:08:51;;;;;;;2.90;1.90;;;;;;;20.46;45.52;95515.97;5030080;28;24459;-74
2021/10/02 12:11:18;;;;;;;1.90;1.70;;;;;;;20.60;45.57;95514.53;5030109;28;24532;-74
2021/10/02 12:13:49;;;;;;;2.90;1.58;;;;;;;20.38;45.87;95521.22;5029883;28;24977;-74
2021/10/02 12:16:17;;;;;;;4.53;1.90;;;;;;;20.08;46.06;95512.16;5028721;28;24533;-74
2021/10/02 12:18:57;;;;;;;1.95;1.67;;;;;;;19.98;47.22;95506.19;5029553;28;24427;-74
2021/10/02 12:21:43;;;;;;;4.55;2.10;;;;;;;19.85;48.17;95498.78;5029941;28;24436;-75
2021/10/02 12:24:14;;;;;;;2.80;1.98;;;;;;;19.95;47.93;95496.84;5030148;28;24489;-74
2021/10/02 12:26:50;;;;;;;2.00;1.80;;;;;;;20.09;48.53;95491.94;5029912;28;24503;-74